Time;durP1;ratioP1;P1;durP2;ratioP2;P2;SDS_P1;SDS_P2;PMS_P1;PMS_P2;Temp;Humidity;BMP_temperature;BMP_pressure;BME280_temperature;BME280_humidity;BME280_pressure;Samples;Min_cycle;Max_cycle;Signal;HPM_P1;HPM_P2
2021/12/24 00:00:13;;;;;;;164.02;57.10;;;;;;;;;;5041975;28;20051;-69
2021/12/24 00:05:43;;;;;;;149.23;56.58;;;;;;;;;;5037575;28;20164;-68
2021/12/24 00:17:26;;;;;;;126.03;48.03;;;;;;;;;;5040975;28;20444;-69
2021/12/24 00:36:09;;;;;;;126.80;47.83;;;;;;;;;;5042433;28;20040;-69
2021/12/24 00:38:36;;;;;;;113.30;46.58;;;;;;;;;;5043315;28;20036;-69
2021/12/24 00:41:02;;;;;;;113.03;47.42;;;;;;;;;;5044447;28;20025;-69
2021/12/24 00:43:28;;;;;;;111.18;45.22;;;;;;;;;;5038062;28;20045;-69
2021/12/24 00:45:54;;;;;;;119.72;46.53;;;;;;;;;;5042664;28;20116;-69
2021/12/24 00:48:20;;;;;;;117.00;45.38;;;;;;;;;;5054628;28;20489;-69
2021/12/24 00:51:17;;;;;;;123.18;47.15;;;;;;;;;;5040369;28;20492;-69
2021/12/24 00:56:08;;;;;;;123.70;47.90;;;;;;;;;;5040001;28;20635;-68
2021/12/24 00:58:34;;;;;;;122.70;47.30;;;;;;;;;;5042325;28;20486;-68
2021/12/24 01:01:00;;;;;;;122.47;47.25;;;;;;;;;;5040313;28;20044;-68
2021/12/24 01:03:27;;;;;;;114.75;46.60;;;;;;;;;;5040767;28;20124;-69
2021/12/24 01:05:53;;;;;;;121.68;46.65;;;;;;;;;;5043459;28;20108;-69
2021/12/24 01:08:19;;;;;;;114.63;45.10;;;;;;;;;;5042950;28;20045;-69
2021/12/24 01:10:47;;;;;;;111.05;45.95;;;;;;;;;;5042830;28;20021;-69
2021/12/24 01:13:13;;;;;;;114.72;46.03;;;;;;;;;;5040396;28;20094;-68
2021/12/24 01:15:50;;;;;;;116.28;46.72;;;;;;;;;;5041898;28;20059;-69
2021/12/24 01:18:39;;;;;;;126.60;48.40;;;;;;;;;;5042618;28;20021;-69
2021/12/24 01:23:44;;;;;;;132.85;47.83;;;;;;;;;;5045015;28;20060;-68
2021/12/24 01:26:15;;;;;;;139.27;49.63;;;;;;;;;;5042891;28;20047;-68
2021/12/24 01:29:06;;;;;;;138.27;49.92;;;;;;;;;;5040807;28;20582;-69
2021/12/24 01:44:58;;;;;;;125.18;47.03;;;;;;;;;;5042680;28;20755;-66
2021/12/24 01:47:24;;;;;;;147.15;49.15;;;;;;;;;;5043140;28;20056;-69
2021/12/24 01:49:50;;;;;;;134.32;47.30;;;;;;;;;;5040985;28;20076;-69
2021/12/24 01:52:16;;;;;;;132.70;48.20;;;;;;;;;;5054729;28;20071;-68
2021/12/24 01:54:43;;;;;;;132.00;45.92;;;;;;;;;;5042045;28;20068;-69
2021/12/24 01:57:11;;;;;;;137.60;44.67;;;;;;;;;;5041875;28;20045;-69
2021/12/24 01:59:37;;;;;;;139.90;43.50;;;;;;;;;;5040436;28;20080;-67
2021/12/24 02:02:03;;;;;;;132.05;43.38;;;;;;;;;;5041380;28;20032;-67
2021/12/24 02:04:29;;;;;;;130.48;44.60;;;;;;;;;;5039622;28;20418;-68
2021/12/24 02:06:55;;;;;;;108.38;40.42;;;;;;;;;;5040485;28;20041;-68
2021/12/24 02:09:21;;;;;;;117.15;41.50;;;;;;;;;;5043234;28;20036;-69
2021/12/24 02:11:47;;;;;;;114.40;42.30;;;;;;;;;;5040675;28;20385;-69
2021/12/24 02:14:20;;;;;;;120.25;42.20;;;;;;;;;;5042613;28;20078;-70
2021/12/24 02:17:15;;;;;;;124.40;42.58;;;;;;;;;;5042942;28;20024;-66
2021/12/24 02:30:37;;;;;;;103.43;38.97;;;;;;;;;;5047586;28;20036;-68
2021/12/24 02:33:04;;;;;;;89.95;38.58;;;;;;;;;;5044225;28;20037;-68
2021/12/24 02:35:30;;;;;;;98.80;37.40;;;;;;;;;;5047160;28;20051;-68
2021/12/24 02:37:56;;;;;;;100.45;36.20;;;;;;;;;;5043686;28;20029;-68
2021/12/24 02:40:23;;;;;;;85.07;33.60;;;;;;;;;;5043136;28;20090;-67
2021/12/24 02:42:53;;;;;;;84.13;33.90;;;;;;;;;;5045862;28;20040;-67
2021/12/24 02:45:19;;;;;;;83.80;32.43;;;;;;;;;;5045488;28;20090;-67
2021/12/24 02:55:31;;;;;;;67.40;28.17;;;;;;;;;;5045732;28;20175;-69
2021/12/24 02:57:57;;;;;;;61.13;27.25;;;;;;;;;;5043863;28;20552;-69
2021/12/24 03:00:26;;;;;;;79.47;27.70;;;;;;;;;;5043900;28;20034;-69
2021/12/24 03:02:53;;;;;;;74.05;27.75;;;;;;;;;;5043660;28;20491;-66
2021/12/24 03:05:20;;;;;;;60.70;24.95;;;;;;;;;;5041624;28;20084;-67
2021/12/24 03:07:46;;;;;;;60.80;25.23;;;;;;;;;;5044864;28;20040;-67
2021/12/24 03:10:16;;;;;;;51.95;23.65;;;;;;;;;;5043979;28;20494;-67
2021/12/24 03:12:44;;;;;;;60.83;26.45;;;;;;;;;;5043539;28;20029;-67
2021/12/24 03:15:11;;;;;;;61.15;24.63;;;;;;;;;;5045683;28;20056;-67
2021/12/24 03:17:37;;;;;;;55.75;24.83;;;;;;;;;;5045996;28;20021;-68
2021/12/24 03:20:08;;;;;;;61.25;26.52;;;;;;;;;;5042263;28;20018;-67
2021/12/24 03:23:21;;;;;;;59.75;25.48;;;;;;;;;;5043458;28;20033;-68
2021/12/24 03:25:26;;;;;;;75.28;25.40;;;;;;;;;;5043233;28;21242;-69
2021/12/24 03:27:52;;;;;;;55.42;24.83;;;;;;;;;;5044742;28;20029;-68
2021/12/24 03:30:18;;;;;;;59.40;24.30;;;;;;;;;;5046514;28;20033;-68
2021/12/24 03:32:44;;;;;;;64.07;25.83;;;;;;;;;;5039885;28;20029;-68
2021/12/24 03:35:10;;;;;;;90.95;28.02;;;;;;;;;;5042895;28;20033;-69
2021/12/24 03:37:37;;;;;;;57.60;24.73;;;;;;;;;;5045281;28;21538;-69
2021/12/24 03:40:04;;;;;;;64.35;25.95;;;;;;;;;;5043405;28;20034;-67
2021/12/24 03:42:31;;;;;;;61.47;24.27;;;;;;;;;;5043414;28;20052;-68
2021/12/24 03:45:07;;;;;;;59.97;25.77;;;;;;;;;;5041073;28;20034;-69
2021/12/24 03:47:38;;;;;;;64.97;24.42;;;;;;;;;;5044217;28;20052;-69
2021/12/24 03:50:09;;;;;;;55.78;23.77;;;;;;;;;;5044519;28;20481;-69
2021/12/24 03:53:00;;;;;;;60.15;24.13;;;;;;;;;;5043653;28;20060;-68
2021/12/24 03:55:21;;;;;;;53.03;22.85;;;;;;;;;;5041267;28;20493;-67
2021/12/24 03:57:47;;;;;;;54.20;21.95;;;;;;;;;;5058995;28;20170;-68
2021/12/24 04:00:18;;;;;;;53.97;22.50;;;;;;;;;;5042996;28;20074;-67
2021/12/24 04:02:45;;;;;;;57.50;22.70;;;;;;;;;;5041995;28;20052;-67
2021/12/24 04:05:11;;;;;;;55.28;21.65;;;;;;;;;;5042948;28;20525;-67
2021/12/24 04:07:37;;;;;;;51.50;21.73;;;;;;;;;;5042930;28;20569;-68
2021/12/24 04:10:19;;;;;;;60.40;23.33;;;;;;;;;;5043067;28;20039;-67
2021/12/24 04:12:45;;;;;;;48.85;20.85;;;;;;;;;;5044636;28;20064;-67
2021/12/24 04:15:11;;;;;;;64.80;21.17;;;;;;;;;;5044177;28;20459;-67
2021/12/24 04:17:39;;;;;;;51.50;20.80;;;;;;;;;;5041990;28;20333;-69
2021/12/24 04:25:25;;;;;;;66.75;21.05;;;;;;;;;;5044724;28;20154;-68
2021/12/24 04:27:53;;;;;;;60.30;19.65;;;;;;;;;;5038955;28;20017;-68
2021/12/24 04:30:24;;;;;;;50.80;18.02;;;;;;;;;;5043707;28;20021;-68
2021/12/24 04:33:06;;;;;;;47.25;18.67;;;;;;;;;;5043234;28;20029;-68
2021/12/24 04:35:41;;;;;;;54.20;17.92;;;;;;;;;;5042038;28;20078;-68
2021/12/24 04:51:44;;;;;;;50.80;18.13;;;;;;;;;;5041323;28;21145;-67
2021/12/24 05:02:29;;;;;;;41.30;14.65;;;;;;;;;;5042360;28;20106;-68
2021/12/24 05:05:06;;;;;;;41.15;14.93;;;;;;;;;;5040897;28;20032;-68
2021/12/24 05:10:07;;;;;;;39.50;12.88;;;;;;;;;;5042218;28;20070;-67
2021/12/24 05:12:34;;;;;;;37.67;12.27;;;;;;;;;;5042685;28;20597;-68
2021/12/24 05:15:01;;;;;;;41.67;14.40;;;;;;;;;;5043850;28;20028;-69
2021/12/24 05:17:35;;;;;;;43.33;12.98;;;;;;;;;;5041282;28;20103;-68
2021/12/24 05:22:46;;;;;;;44.53;12.45;;;;;;;;;;5052632;28;20203;-68
2021/12/24 05:25:12;;;;;;;40.55;12.55;;;;;;;;;;5040870;28;20057;-68
2021/12/24 05:27:38;;;;;;;38.53;11.95;;;;;;;;;;5040600;28;20051;-67
2021/12/24 05:30:05;;;;;;;36.70;13.10;;;;;;;;;;5024557;28;20044;-68
2021/12/24 05:32:31;;;;;;;41.47;11.68;;;;;;;;;;5041144;28;20064;-68
2021/12/24 05:34:57;;;;;;;42.53;12.07;;;;;;;;;;5042038;28;21386;-68
2021/12/24 05:37:23;;;;;;;37.88;11.68;;;;;;;;;;5042468;28;20477;-68
2021/12/24 05:39:49;;;;;;;41.65;12.60;;;;;;;;;;5039233;28;20112;-68
2021/12/24 05:42:15;;;;;;;45.22;12.48;;;;;;;;;;5039637;28;20120;-68
2021/12/24 05:44:41;;;;;;;43.00;10.93;;;;;;;;;;5043361;28;20041;-68
2021/12/24 05:47:07;;;;;;;41.35;12.73;;;;;;;;;;5028489;28;20024;-69
2021/12/24 05:49:34;;;;;;;35.63;12.55;;;;;;;;;;5039051;28;20133;-69
2021/12/24 05:52:01;;;;;;;41.25;12.02;;;;;;;;;;5043017;28;20490;-70
2021/12/24 05:54:27;;;;;;;42.55;12.15;;;;;;;;;;5042450;28;20035;-69
2021/12/24 05:56:53;;;;;;;40.83;11.70;;;;;;;;;;5042734;28;20494;-70
2021/12/24 05:59:19;;;;;;;39.78;10.55;;;;;;;;;;5041553;28;20033;-69
2021/12/24 06:01:45;;;;;;;49.03;12.02;;;;;;;;;;5028220;28;20083;-69
2021/12/24 06:04:11;;;;;;;43.22;10.68;;;;;;;;;;5055024;28;20121;-66
2021/12/24 06:06:37;;;;;;;46.15;10.52;;;;;;;;;;5042926;28;20533;-67
2021/12/24 06:09:03;;;;;;;46.88;11.18;;;;;;;;;;5041053;28;20033;-67
2021/12/24 06:11:30;;;;;;;41.63;11.98;;;;;;;;;;5041275;28;21401;-68
2021/12/24 06:13:56;;;;;;;38.95;9.93;;;;;;;;;;5039696;28;20133;-68
2021/12/24 06:16:23;;;;;;;42.28;10.60;;;;;;;;;;5043166;28;20033;-67
2021/12/24 06:18:49;;;;;;;54.25;11.85;;;;;;;;;;5042602;28;20491;-67
2021/12/24 06:21:15;;;;;;;43.35;10.15;;;;;;;;;;5041374;28;20028;-67
2021/12/24 06:23:43;;;;;;;45.78;11.20;;;;;;;;;;5057197;28;20041;-67
2021/12/24 06:26:10;;;;;;;56.80;11.45;;;;;;;;;;5039864;28;20037;-67
2021/12/24 06:28:36;;;;;;;57.90;11.55;;;;;;;;;;5039850;28;20045;-70
2021/12/24 06:31:03;;;;;;;56.35;12.23;;;;;;;;;;5036913;28;20395;-67
2021/12/24 06:33:29;;;;;;;44.13;11.60;;;;;;;;;;5038964;28;20403;-69
2021/12/24 06:35:57;;;;;;;40.22;10.32;;;;;;;;;;5042640;28;20021;-69
2021/12/24 06:38:23;;;;;;;38.00;10.55;;;;;;;;;;5042365;28;20033;-70
2021/12/24 06:40:49;;;;;;;47.55;12.27;;;;;;;;;;5040217;28;20056;-69
2021/12/24 06:43:16;;;;;;;51.25;9.80;;;;;;;;;;5040604;28;20041;-69
2021/12/24 06:45:42;;;;;;;52.85;12.02;;;;;;;;;;5042299;28;20466;-69
2021/12/24 06:48:08;;;;;;;66.20;13.68;;;;;;;;;;5035563;28;20025;-69
2021/12/24 06:50:34;;;;;;;58.22;12.20;;;;;;;;;;5037577;28;20032;-69
2021/12/24 06:53:00;;;;;;;41.25;11.82;;;;;;;;;;5041422;28;20052;-69
2021/12/24 06:55:26;;;;;;;56.45;12.60;;;;;;;;;;5038233;28;20379;-70
2021/12/24 06:57:52;;;;;;;51.65;13.77;;;;;;;;;;5040575;28;20121;-68
2021/12/24 07:00:20;;;;;;;57.17;14.68;;;;;;;;;;5039982;28;20032;-68
2021/12/24 07:02:47;;;;;;;54.47;13.48;;;;;;;;;;5039329;28;20024;-67
2021/12/24 07:05:14;;;;;;;50.80;13.68;;;;;;;;;;5039772;28;20036;-69
2021/12/24 07:07:40;;;;;;;50.00;12.00;;;;;;;;;;5038416;28;20043;-70
2021/12/24 07:10:06;;;;;;;44.50;12.40;;;;;;;;;;5038934;28;20119;-70
2021/12/24 07:12:32;;;;;;;59.58;13.13;;;;;;;;;;5042538;28;20029;-70
2021/12/24 07:14:58;;;;;;;52.33;13.45;;;;;;;;;;5041259;28;20303;-69
2021/12/24 07:17:25;;;;;;;53.33;14.38;;;;;;;;;;5040676;28;20118;-71
2021/12/24 07:19:51;;;;;;;57.28;14.95;;;;;;;;;;5040824;28;20086;-71
2021/12/24 07:22:18;;;;;;;46.97;12.73;;;;;;;;;;5044140;28;20528;-70
2021/12/24 07:24:44;;;;;;;56.70;13.95;;;;;;;;;;5024564;28;21010;-70
2021/12/24 07:27:10;;;;;;;61.25;14.10;;;;;;;;;;5040855;28;20064;-71
2021/12/24 07:29:37;;;;;;;59.03;13.18;;;;;;;;;;5043472;28;20029;-71
2021/12/24 07:32:03;;;;;;;57.28;14.45;;;;;;;;;;5044330;28;20040;-70
2021/12/24 07:34:30;;;;;;;55.83;14.07;;;;;;;;;;5041787;28;20040;-70
2021/12/24 07:36:56;;;;;;;55.97;13.63;;;;;;;;;;5044440;28;20020;-71
2021/12/24 07:39:22;;;;;;;49.45;12.70;;;;;;;;;;5043263;28;20043;-70
2021/12/24 07:41:48;;;;;;;52.33;12.15;;;;;;;;;;5039533;28;21579;-71
2021/12/24 07:44:17;;;;;;;48.35;12.57;;;;;;;;;;5046234;28;20462;-69
2021/12/24 07:46:50;;;;;;;42.58;12.20;;;;;;;;;;5040783;28;20053;-68
2021/12/24 07:54:33;;;;;;;45.55;13.15;;;;;;;;;;5040251;28;20116;-70
2021/12/24 07:57:00;;;;;;;45.05;11.38;;;;;;;;;;5043578;28;20864;-70
2021/12/24 07:59:26;;;;;;;47.47;11.25;;;;;;;;;;5042409;28;20043;-69
2021/12/24 08:01:56;;;;;;;44.15;11.57;;;;;;;;;;5042256;28;20128;-71
2021/12/24 08:04:23;;;;;;;50.75;12.02;;;;;;;;;;5046234;28;20033;-70
2021/12/24 08:06:49;;;;;;;44.58;10.85;;;;;;;;;;5044025;28;20045;-71
2021/12/24 08:09:15;;;;;;;67.38;12.90;;;;;;;;;;5042526;28;20142;-69
2021/12/24 08:11:41;;;;;;;46.33;12.85;;;;;;;;;;5037850;28;20302;-70
2021/12/24 08:14:08;;;;;;;46.97;11.18;;;;;;;;;;5044020;28;20025;-69
2021/12/24 08:16:35;;;;;;;59.40;12.27;;;;;;;;;;5039824;28;20040;-70
2021/12/24 08:19:02;;;;;;;52.33;12.02;;;;;;;;;;5042764;28;20037;-69
2021/12/24 08:21:28;;;;;;;59.88;11.30;;;;;;;;;;5042750;28;20029;-70
2021/12/24 08:23:55;;;;;;;47.28;12.77;;;;;;;;;;5043069;28;20398;-69
2021/12/24 08:26:21;;;;;;;58.20;13.38;;;;;;;;;;5032801;28;20294;-70
2021/12/24 08:28:48;;;;;;;49.72;12.18;;;;;;;;;;5037614;28;20489;-70
2021/12/24 08:31:14;;;;;;;47.92;11.45;;;;;;;;;;5043242;28;20124;-70
2021/12/24 08:33:40;;;;;;;51.40;9.98;;;;;;;;;;5042961;28;20037;-69
2021/12/24 08:36:07;;;;;;;54.30;10.25;;;;;;;;;;5043809;28;20063;-70
2021/12/24 08:38:34;;;;;;;51.05;11.93;;;;;;;;;;5040076;28;20112;-70
2021/12/24 08:41:00;;;;;;;46.15;11.10;;;;;;;;;;5053076;28;20115;-70
2021/12/24 08:43:26;;;;;;;64.18;9.77;;;;;;;;;;5043661;28;20140;-69
2021/12/24 08:45:52;;;;;;;43.72;9.32;;;;;;;;;;5042756;28;20076;-70
2021/12/24 08:48:19;;;;;;;53.13;9.35;;;;;;;;;;5040895;28;20382;-71
2021/12/24 08:50:46;;;;;;;51.60;10.65;;;;;;;;;;5040145;28;20044;-68
2021/12/24 08:53:12;;;;;;;45.75;9.20;;;;;;;;;;5044089;28;20111;-71
2021/12/24 08:55:39;;;;;;;43.47;9.23;;;;;;;;;;5042968;28;20013;-70
2021/12/24 08:58:05;;;;;;;58.72;10.80;;;;;;;;;;5041496;28;20095;-70
2021/12/24 09:00:31;;;;;;;46.65;8.68;;;;;;;;;;5044116;28;20091;-69
2021/12/24 09:02:57;;;;;;;56.63;9.35;;;;;;;;;;5037492;28;20028;-69
2021/12/24 09:05:24;;;;;;;38.13;7.60;;;;;;;;;;5034700;28;20426;-71
2021/12/24 09:07:50;;;;;;;41.00;8.73;;;;;;;;;;5038329;28;20056;-69
2021/12/24 09:10:17;;;;;;;43.55;8.85;;;;;;;;;;5044442;28;20040;-69
2021/12/24 09:12:43;;;;;;;46.97;9.10;;;;;;;;;;5030034;28;20079;-69
2021/12/24 09:15:10;;;;;;;52.20;9.75;;;;;;;;;;5041878;28;20617;-71
2021/12/24 09:17:36;;;;;;;53.88;9.45;;;;;;;;;;5039319;28;20039;-69
2021/12/24 09:20:02;;;;;;;48.85;7.82;;;;;;;;;;5040445;28;20025;-71
2021/12/24 09:22:32;;;;;;;53.60;10.85;;;;;;;;;;5042585;28;20670;-71
2021/12/24 09:24:58;;;;;;;41.03;7.65;;;;;;;;;;5041206;28;20104;-71
2021/12/24 09:27:25;;;;;;;41.72;8.05;;;;;;;;;;5026646;28;20063;-70
2021/12/24 09:29:51;;;;;;;41.10;6.72;;;;;;;;;;5037872;28;20120;-70
2021/12/24 09:32:17;;;;;;;37.70;6.97;;;;;;;;;;5039734;28;20336;-70
2021/12/24 09:34:43;;;;;;;39.08;9.00;;;;;;;;;;5041395;28;20127;-70
2021/12/24 09:37:09;;;;;;;39.95;7.65;;;;;;;;;;5014170;28;20041;-68
2021/12/24 09:39:35;;;;;;;46.85;8.20;;;;;;;;;;5041153;28;20103;-71
2021/12/24 09:42:02;;;;;;;47.88;8.18;;;;;;;;;;5041220;28;20017;-71
2021/12/24 09:44:28;;;;;;;48.25;8.52;;;;;;;;;;5022793;28;20071;-71
2021/12/24 09:46:55;;;;;;;50.33;9.05;;;;;;;;;;5041289;28;20072;-70
2021/12/24 09:49:21;;;;;;;48.10;6.72;;;;;;;;;;5033091;28;20036;-70
2021/12/24 09:51:50;;;;;;;52.17;10.00;;;;;;;;;;5042015;28;20021;-69
2021/12/24 09:54:21;;;;;;;46.22;7.50;;;;;;;;;;5041130;28;20034;-69
2021/12/24 09:56:47;;;;;;;51.40;7.90;;;;;;;;;;5036771;28;20414;-69
2021/12/24 09:59:14;;;;;;;43.58;6.90;;;;;;;;;;5041098;28;20124;-71
2021/12/24 10:01:44;;;;;;;35.65;5.72;;;;;;;;;;5040626;28;20513;-68
2021/12/24 10:04:15;;;;;;;46.00;7.43;;;;;;;;;;5039043;28;20482;-71
2021/12/24 10:06:52;;;;;;;35.78;6.40;;;;;;;;;;5035499;28;20039;-70
2021/12/24 10:09:19;;;;;;;38.10;6.72;;;;;;;;;;5042483;28;20028;-70
2021/12/24 10:11:49;;;;;;;46.22;7.80;;;;;;;;;;5039180;28;20111;-70
2021/12/24 10:14:16;;;;;;;40.22;8.48;;;;;;;;;;5039243;28;20047;-69
2021/12/24 10:16:44;;;;;;;33.58;6.32;;;;;;;;;;5040080;28;20029;-69
2021/12/24 10:19:10;;;;;;;50.35;7.25;;;;;;;;;;5042295;28;20028;-69
2021/12/24 10:21:36;;;;;;;47.20;6.78;;;;;;;;;;5038959;28;20122;-70
2021/12/24 10:24:11;;;;;;;42.60;7.70;;;;;;;;;;5037514;28;20041;-71
2021/12/24 10:26:50;;;;;;;52.90;8.05;;;;;;;;;;5036532;28;20108;-71
2021/12/24 10:29:18;;;;;;;48.03;8.60;;;;;;;;;;5040485;28;20033;-68
2021/12/24 10:31:44;;;;;;;39.63;5.97;;;;;;;;;;5038325;28;20044;-70
2021/12/24 10:34:19;;;;;;;44.72;7.47;;;;;;;;;;5036867;28;20054;-69
2021/12/24 10:36:52;;;;;;;50.40;8.77;;;;;;;;;;5042295;28;20039;-69
2021/12/24 10:39:19;;;;;;;39.55;5.97;;;;;;;;;;5042484;28;20082;-69
2021/12/24 10:41:48;;;;;;;44.92;7.60;;;;;;;;;;5041984;28;20079;-69
2021/12/24 10:44:17;;;;;;;32.88;6.78;;;;;;;;;;5040603;28;20036;-70
2021/12/24 10:47:02;;;;;;;52.40;8.90;;;;;;;;;;5045416;28;20750;-68
2021/12/24 10:49:48;;;;;;;33.63;6.85;;;;;;;;;;5041708;28;20040;-68
2021/12/24 10:54:57;;;;;;;36.58;7.25;;;;;;;;;;5038962;28;20443;-70
2021/12/24 10:57:25;;;;;;;49.20;7.75;;;;;;;;;;5046248;28;20049;-70
2021/12/24 10:59:54;;;;;;;50.05;8.65;;;;;;;;;;5041101;28;20043;-70
2021/12/24 11:02:22;;;;;;;42.90;8.40;;;;;;;;;;5044152;28;20017;-68
2021/12/24 11:04:48;;;;;;;51.08;8.73;;;;;;;;;;5043158;28;20108;-68
2021/12/24 11:07:33;;;;;;;40.08;8.57;;;;;;;;;;5044116;28;20095;-68
2021/12/24 11:10:09;;;;;;;38.22;7.95;;;;;;;;;;5043748;28;20168;-68
2021/12/24 11:12:36;;;;;;;45.13;9.00;;;;;;;;;;5045010;28;20036;-69
2021/12/24 11:15:02;;;;;;;40.22;9.43;;;;;;;;;;5034822;28;20516;-70
2021/12/24 11:17:49;;;;;;;48.75;10.25;;;;;;;;;;5042033;28;20037;-70
2021/12/24 11:20:15;;;;;;;40.50;10.43;;;;;;;;;;5044500;28;20106;-70
2021/12/24 11:22:50;;;;;;;38.78;11.25;;;;;;;;;;5039817;28;20029;-70
2021/12/24 11:25:16;;;;;;;32.85;9.43;;;;;;;;;;5041791;28;20395;-70
2021/12/24 11:27:42;;;;;;;41.72;12.20;;;;;;;;;;5038866;28;20044;-70
2021/12/24 11:30:09;;;;;;;50.47;11.10;;;;;;;;;;5045970;28;20025;-68
2021/12/24 11:32:35;;;;;;;44.05;9.93;;;;;;;;;;5041096;28;20082;-68
2021/12/24 11:35:01;;;;;;;43.45;9.80;;;;;;;;;;5042404;28;20052;-68
2021/12/24 11:37:28;;;;;;;41.95;9.40;;;;;;;;;;5045301;28;20124;-68
2021/12/24 11:39:55;;;;;;;52.40;11.35;;;;;;;;;;5042404;28;20057;-68
2021/12/24 11:42:21;;;;;;;45.80;9.82;;;;;;;;;;5023899;28;20036;-68
2021/12/24 11:44:49;;;;;;;61.90;12.32;;;;;;;;;;5046616;28;20025;-68
2021/12/24 11:47:15;;;;;;;51.90;11.38;;;;;;;;;;5046486;28;20033;-68
2021/12/24 11:49:41;;;;;;;47.17;10.98;;;;;;;;;;5044853;28;20036;-68
2021/12/24 11:52:08;;;;;;;37.05;8.50;;;;;;;;;;5043289;28;20020;-68
2021/12/24 11:54:34;;;;;;;52.75;10.43;;;;;;;;;;5043008;28;20524;-67
2021/12/24 11:57:00;;;;;;;51.22;10.68;;;;;;;;;;5042042;28;20080;-68
2021/12/24 11:59:37;;;;;;;54.35;10.13;;;;;;;;;;5039869;28;20041;-68
2021/12/24 12:02:03;;;;;;;40.10;10.50;;;;;;;;;;5040315;28;20036;-67
2021/12/24 12:04:29;;;;;;;53.28;12.23;;;;;;;;;;5042048;28;20378;-67
2021/12/24 12:07:16;;;;;;;47.08;10.68;;;;;;;;;;5044570;28;20128;-68
2021/12/24 12:09:43;;;;;;;53.05;11.68;;;;;;;;;;5042211;28;20072;-67
2021/12/24 12:12:13;;;;;;;55.90;10.80;;;;;;;;;;5043373;28;20021;-67
2021/12/24 12:14:39;;;;;;;47.00;10.88;;;;;;;;;;5040432;28;20104;-67
2021/12/24 12:17:08;;;;;;;46.40;11.38;;;;;;;;;;5044420;28;20127;-68
2021/12/24 12:19:46;;;;;;;48.60;12.80;;;;;;;;;;5038756;28;20033;-67
2021/12/24 12:22:15;;;;;;;47.05;11.13;;;;;;;;;;5042560;28;20021;-67
2021/12/24 12:27:19;;;;;;;59.03;12.65;;;;;;;;;;5040171;28;20060;-67
2021/12/24 12:29:45;;;;;;;45.25;11.20;;;;;;;;;;5042114;28;20115;-68
2021/12/24 12:32:17;;;;;;;49.45;11.82;;;;;;;;;;5040545;28;20020;-68
2021/12/24 12:34:43;;;;;;;59.70;11.90;;;;;;;;;;5042420;28;20108;-68
2021/12/24 12:37:13;;;;;;;44.70;12.43;;;;;;;;;;5044368;28;20136;-68
2021/12/24 12:39:39;;;;;;;38.85;11.63;;;;;;;;;;5057314;28;20087;-68
2021/12/24 12:42:05;;;;;;;45.42;11.50;;;;;;;;;;5042158;28;20021;-68
2021/12/24 12:44:33;;;;;;;41.97;11.90;;;;;;;;;;5042776;28;20120;-67
2021/12/24 12:47:10;;;;;;;33.10;9.43;;;;;;;;;;5040805;28;20809;-68
2021/12/24 12:49:36;;;;;;;35.08;9.52;;;;;;;;;;5042281;28;20492;-68
2021/12/24 12:52:04;;;;;;;32.33;10.23;;;;;;;;;;5041729;28;20083;-68
2021/12/24 12:54:41;;;;;;;29.73;8.82;;;;;;;;;;5040416;28;20505;-68
2021/12/24 12:57:09;;;;;;;46.92;10.25;;;;;;;;;;5037062;28;20033;-67
2021/12/24 12:59:35;;;;;;;30.27;10.32;;;;;;;;;;5054790;28;20026;-68
2021/12/24 13:02:02;;;;;;;38.58;10.55;;;;;;;;;;5030593;28;20036;-68
2021/12/24 13:04:28;;;;;;;39.38;11.57;;;;;;;;;;5041619;28;20502;-68
2021/12/24 13:06:56;;;;;;;38.40;12.18;;;;;;;;;;5042358;28;20045;-69
2021/12/24 13:09:23;;;;;;;43.08;13.23;;;;;;;;;;5041260;28;20413;-68
2021/12/24 13:11:51;;;;;;;44.63;11.73;;;;;;;;;;5044838;28;20021;-68
2021/12/24 13:14:18;;;;;;;41.28;10.70;;;;;;;;;;5042517;28;20037;-68
2021/12/24 13:16:51;;;;;;;43.58;10.98;;;;;;;;;;5042490;28;20029;-68
2021/12/24 13:25:09;;;;;;;40.15;10.35;;;;;;;;;;5042625;28;20489;-68
2021/12/24 13:27:40;;;;;;;37.88;10.85;;;;;;;;;;5030876;28;20040;-68
2021/12/24 13:30:06;;;;;;;38.13;9.80;;;;;;;;;;5041061;28;20458;-70
2021/12/24 13:32:36;;;;;;;30.13;10.32;;;;;;;;;;5041639;28;20458;-70
2021/12/24 13:35:02;;;;;;;35.40;10.20;;;;;;;;;;5040814;28;20029;-70
2021/12/24 13:37:33;;;;;;;31.60;9.93;;;;;;;;;;5037815;28;20325;-70
2021/12/24 13:39:59;;;;;;;29.20;10.50;;;;;;;;;;5037155;28;20041;-69
2021/12/24 13:42:25;;;;;;;25.52;9.57;;;;;;;;;;5040197;28;20036;-69
2021/12/24 13:44:59;;;;;;;22.45;9.57;;;;;;;;;;5039728;28;20033;-69
2021/12/24 13:55:35;;;;;;;20.55;9.38;;;;;;;;;;5041497;28;20172;-69
2021/12/24 13:58:03;;;;;;;28.92;9.93;;;;;;;;;;5044036;28;20080;-69
2021/12/24 14:00:30;;;;;;;20.42;10.23;;;;;;;;;;5038128;28;20041;-69
2021/12/24 14:02:58;;;;;;;24.73;10.18;;;;;;;;;;5040815;28;20032;-69
2021/12/24 14:05:24;;;;;;;23.25;9.13;;;;;;;;;;5037612;28;20040;-69
2021/12/24 14:08:05;;;;;;;20.40;9.10;;;;;;;;;;5040878;28;20068;-69
2021/12/24 14:10:31;;;;;;;29.27;10.95;;;;;;;;;;5039482;28;20555;-69
2021/12/24 14:13:05;;;;;;;23.58;10.32;;;;;;;;;;5037039;28;21169;-69
2021/12/24 14:15:32;;;;;;;24.80;9.45;;;;;;;;;;5043247;28;20025;-69
2021/12/24 14:18:22;;;;;;;31.35;12.88;;;;;;;;;;5044335;28;20037;-69
2021/12/24 14:21:44;;;;;;;27.95;11.82;;;;;;;;;;5043164;28;20045;-70
2021/12/24 14:23:34;;;;;;;30.00;13.57;;;;;;;;;;5044952;28;20064;-70
2021/12/24 14:26:02;;;;;;;35.30;14.70;;;;;;;;;;5044462;28;20083;-69
2021/12/24 14:28:28;;;;;;;38.95;15.52;;;;;;;;;;5043615;28;20102;-69
2021/12/24 14:31:01;;;;;;;34.40;14.77;;;;;;;;;;5058363;28;20493;-69
2021/12/24 14:33:27;;;;;;;41.90;15.13;;;;;;;;;;5043878;28;20272;-69
2021/12/24 14:35:56;;;;;;;31.67;14.85;;;;;;;;;;5044158;28;20516;-69
2021/12/24 14:38:26;;;;;;;39.97;16.48;;;;;;;;;;5043821;28;20025;-69
2021/12/24 14:40:58;;;;;;;39.78;16.65;;;;;;;;;;5043916;28;20459;-69
2021/12/24 14:43:25;;;;;;;32.65;13.98;;;;;;;;;;5045680;28;20025;-69
2021/12/24 14:45:52;;;;;;;28.92;11.30;;;;;;;;;;5045617;28;20023;-69
2021/12/24 14:48:21;;;;;;;14.40;7.85;;;;;;;;;;5045103;28;20032;-68
2021/12/24 14:50:52;;;;;;;12.23;6.78;;;;;;;;;;5043679;28;20025;-69
2021/12/24 14:53:18;;;;;;;;;;;;;;;;;;5044000;28;20028;-69
2021/12/24 14:55:55;;;;;;;7.85;3.40;;;;;;;;;;5042186;28;19913;-69
2021/12/24 14:58:35;;;;;;;6.32;3.58;;;;;;;;;;5044694;28;20068;-69
2021/12/24 15:01:04;;;;;;;10.43;4.38;;;;;;;;;;5044632;28;20127;-69
2021/12/24 15:03:32;;;;;;;9.82;4.10;;;;;;;;;;5046958;28;20029;-69
2021/12/24 15:05:58;;;;;;;8.77;4.50;;;;;;;;;;5044374;28;20029;-69
2021/12/24 15:08:26;;;;;;;8.55;4.53;;;;;;;;;;5035621;28;20041;-69
2021/12/24 15:11:18;;;;;;;9.23;3.88;;;;;;;;;;5037199;28;21229;-68
2021/12/24 15:13:46;;;;;;;7.85;4.60;;;;;;;;;;5041355;28;20136;-69
2021/12/24 15:16:16;;;;;;;8.00;5.30;;;;;;;;;;5041436;28;20030;-69
2021/12/24 15:18:42;;;;;;;6.88;4.15;;;;;;;;;;5038702;28;20371;-69
2021/12/24 15:21:08;;;;;;;5.38;3.75;;;;;;;;;;5043085;28;20111;-70
2021/12/24 15:23:34;;;;;;;7.60;4.43;;;;;;;;;;5024774;28;20049;-69
2021/12/24 15:26:00;;;;;;;7.10;4.65;;;;;;;;;;5043204;28;20370;-71
2021/12/24 15:28:26;;;;;;;7.65;5.38;;;;;;;;;;5038873;28;20048;-71
2021/12/24 15:30:53;;;;;;;7.70;5.40;;;;;;;;;;5045115;28;20045;-71
2021/12/24 15:33:21;;;;;;;9.02;6.47;;;;;;;;;;5046799;28;20033;-71
2021/12/24 15:35:47;;;;;;;12.63;7.68;;;;;;;;;;5048287;28;20173;-70
2021/12/24 15:38:14;;;;;;;10.50;7.10;;;;;;;;;;5048270;28;20100;-70
2021/12/24 15:40:40;;;;;;;11.48;7.07;;;;;;;;;;5047859;28;20043;-70
2021/12/24 15:43:06;;;;;;;11.63;7.47;;;;;;;;;;5048824;28;20029;-70
2021/12/24 15:45:36;;;;;;;16.50;9.35;;;;;;;;;;5048615;28;20066;-70
2021/12/24 15:48:02;;;;;;;13.48;7.97;;;;;;;;;;5049022;28;20045;-70
2021/12/24 15:50:28;;;;;;;17.20;11.13;;;;;;;;;;5047327;28;20044;-71
2021/12/24 15:52:55;;;;;;;16.60;9.52;;;;;;;;;;5047986;28;20025;-70
2021/12/24 15:55:21;;;;;;;16.30;8.73;;;;;;;;;;5048837;28;20040;-69
2021/12/24 15:57:47;;;;;;;12.82;9.00;;;;;;;;;;5062064;28;20506;-70
2021/12/24 16:00:14;;;;;;;17.10;10.20;;;;;;;;;;5045507;28;20124;-70
2021/12/24 16:02:40;;;;;;;12.93;9.38;;;;;;;;;;5041834;28;20048;-71
2021/12/24 16:05:06;;;;;;;15.00;9.65;;;;;;;;;;5047619;28;20577;-70
2021/12/24 16:07:32;;;;;;;17.88;10.23;;;;;;;;;;5041454;28;20052;-70
2021/12/24 16:09:58;;;;;;;19.88;12.77;;;;;;;;;;5047512;28;20057;-70
2021/12/24 16:12:26;;;;;;;22.70;15.98;;;;;;;;;;5046325;28;20040;-70
2021/12/24 16:14:52;;;;;;;23.15;12.93;;;;;;;;;;5046784;28;20036;-70
2021/12/24 16:17:18;;;;;;;53.47;39.10;;;;;;;;;;5047125;28;20090;-70
2021/12/24 16:19:45;;;;;;;18.25;14.07;;;;;;;;;;5046508;28;20352;-69
2021/12/24 16:22:12;;;;;;;18.35;12.10;;;;;;;;;;5045876;28;20390;-71
2021/12/24 16:24:40;;;;;;;19.38;11.55;;;;;;;;;;5045536;28;21325;-69
2021/12/24 16:27:07;;;;;;;18.33;11.98;;;;;;;;;;5041956;28;20521;-69
2021/12/24 16:29:45;;;;;;;17.30;12.68;;;;;;;;;;5041903;28;20038;-70